createdAt,value
2018-12-03T00:00:20.580Z,12.00
2018-12-03T00:02:49.673Z,12.00
2018-12-03T00:05:18.307Z,12.00
2018-12-03T00:07:47.002Z,12.00
2018-12-03T00:10:15.557Z,12.00
2018-12-03T00:12:44.225Z,12.00
2018-12-03T00:15:12.906Z,12.00
2018-12-03T00:17:41.521Z,12.10
2018-12-03T00:20:10.551Z,12.10
2018-12-03T00:22:39.197Z,12.20
2018-12-03T00:25:08.565Z,12.20
2018-12-03T00:27:37.255Z,12.20
2018-12-03T00:30:08.651Z,12.20
2018-12-03T00:32:37.533Z,12.30
2018-12-03T00:35:08.012Z,12.20
2018-12-03T00:37:36.775Z,12.20
2018-12-03T00:40:06.369Z,12.20
2018-12-03T00:42:35.105Z,12.20
2018-12-03T00:45:03.717Z,12.10
2018-12-03T00:47:32.354Z,12.20
2018-12-03T00:50:01.269Z,12.20
2018-12-03T00:52:29.901Z,12.20
2018-12-03T00:54:58.538Z,12.20
2018-12-03T00:57:27.165Z,12.20
2018-12-03T00:59:55.809Z,12.20
2018-12-03T01:02:24.969Z,12.10
2018-12-03T01:04:54.215Z,12.20
2018-12-03T01:07:22.898Z,12.20
2018-12-03T01:09:51.881Z,12.10
2018-12-03T01:12:20.502Z,12.20
2018-12-03T01:14:49.407Z,12.20
2018-12-03T01:17:18.034Z,12.20
2018-12-03T01:19:46.638Z,12.20
2018-12-03T01:22:15.437Z,12.20
2018-12-03T01:24:44.471Z,12.10
2018-12-03T01:27:13.098Z,12.10
2018-12-03T01:29:41.725Z,12.10
2018-12-03T01:32:10.785Z,12.10
2018-12-03T01:34:39.440Z,12.00
2018-12-03T01:37:08.045Z,12.10
2018-12-03T01:39:36.678Z,12.10
2018-12-03T01:42:05.313Z,12.20
2018-12-03T01:44:33.972Z,12.20
2018-12-03T01:47:02.838Z,12.10
2018-12-03T01:49:31.478Z,12.10
2018-12-03T01:52:00.452Z,12.10
2018-12-03T01:54:29.072Z,12.10
2018-12-03T01:56:57.736Z,12.10
2018-12-03T01:59:26.626Z,12.10
2018-12-03T02:01:55.266Z,12.10
2018-12-03T02:04:23.897Z,12.10
2018-12-03T02:06:52.564Z,12.10
2018-12-03T02:09:21.182Z,12.00
2018-12-03T02:11:49.845Z,12.10
2018-12-03T02:14:18.723Z,12.20
2018-12-03T02:16:47.425Z,12.10
2018-12-03T02:19:16.005Z,12.10
2018-12-03T02:21:44.629Z,12.20
2018-12-03T02:24:13.241Z,12.20
2018-12-03T02:26:42.157Z,12.20
2018-12-03T02:29:10.797Z,12.20
2018-12-03T02:31:39.425Z,12.20
2018-12-03T02:34:08.050Z,12.20
2018-12-03T02:36:36.675Z,12.20
2018-12-03T02:39:07.824Z,12.20
2018-12-03T02:41:36.959Z,12.20
2018-12-03T02:44:05.785Z,12.20
2018-12-03T02:46:34.486Z,12.20
2018-12-03T02:49:03.061Z,12.20
2018-12-03T02:51:31.701Z,12.20
2018-12-03T02:54:00.438Z,12.20
2018-12-03T02:56:29.075Z,12.20
2018-12-03T02:58:57.740Z,12.20
2018-12-03T03:01:26.378Z,12.20
2018-12-03T03:03:55.024Z,12.10
2018-12-03T03:06:23.625Z,12.20
2018-12-03T03:08:52.266Z,12.20
2018-12-03T03:11:20.989Z,12.20
2018-12-03T03:13:49.617Z,12.20
2018-12-03T03:16:18.279Z,12.10
2018-12-03T03:18:46.973Z,12.10
2018-12-03T03:21:15.706Z,12.10
2018-12-03T03:23:44.312Z,12.10
2018-12-03T03:26:12.915Z,12.00
2018-12-03T03:28:41.569Z,12.10
2018-12-03T03:31:10.191Z,12.10
2018-12-03T03:33:39.131Z,12.10
2018-12-03T03:36:07.821Z,12.10
2018-12-03T03:38:36.386Z,12.10
2018-12-03T03:41:05.054Z,12.10
2018-12-03T03:43:33.638Z,12.10
2018-12-03T03:46:02.550Z,12.20
2018-12-03T03:48:31.233Z,12.20
2018-12-03T03:50:59.820Z,12.20
2018-12-03T03:53:29.061Z,12.20
2018-12-03T03:55:57.687Z,12.20
2018-12-03T03:58:26.557Z,12.20
2018-12-03T04:00:55.172Z,12.30
2018-12-03T04:03:23.825Z,12.30
2018-12-03T04:05:52.427Z,12.20
2018-12-03T04:08:21.089Z,12.20
2018-12-03T04:10:49.730Z,12.30
2018-12-03T04:13:18.371Z,12.30
2018-12-03T04:15:47.857Z,12.40
2018-12-03T04:18:16.551Z,12.40
2018-12-03T04:20:45.150Z,12.40
2018-12-03T04:23:13.788Z,12.40
2018-12-03T04:25:42.749Z,12.50
2018-12-03T04:28:11.367Z,12.50
2018-12-03T04:30:39.982Z,12.50
2018-12-03T04:33:08.588Z,12.50
2018-12-03T04:35:37.223Z,12.50
2018-12-03T04:38:05.861Z,12.50
2018-12-03T04:40:34.458Z,12.50
2018-12-03T04:43:03.075Z,12.50
2018-12-03T04:45:31.730Z,12.50
2018-12-03T04:48:00.400Z,12.50
2018-12-03T04:50:29.290Z,12.50
2018-12-03T04:52:57.946Z,12.50
2018-12-03T04:55:26.574Z,12.50
2018-12-03T04:57:55.327Z,12.40
2018-12-03T05:00:23.942Z,12.40
2018-12-03T05:02:53.001Z,12.40
2018-12-03T05:05:21.609Z,12.30
2018-12-03T05:07:50.291Z,12.30
2018-12-03T05:10:19.914Z,12.30
2018-12-03T05:12:49.588Z,12.20
2018-12-03T05:15:18.265Z,12.10
2018-12-03T05:17:46.913Z,12.10
2018-12-03T05:20:16.964Z,12.10
2018-12-03T05:22:45.586Z,12.10
2018-12-03T05:25:19.158Z,12.10
2018-12-03T05:27:43.060Z,12.10
2018-12-03T05:30:13.666Z,12.10
2018-12-03T05:32:42.938Z,12.10
2018-12-03T05:35:12.871Z,12.10
2018-12-03T05:37:41.682Z,12.10
2018-12-03T05:40:12.894Z,12.10
2018-12-03T05:42:41.803Z,12.10
2018-12-03T05:45:10.605Z,12.10
2018-12-03T05:47:39.502Z,12.10
2018-12-03T05:50:14.210Z,12.10
2018-12-03T05:52:43.701Z,12.10
2018-12-03T05:55:12.795Z,12.10
2018-12-03T05:57:41.837Z,12.10
2018-12-03T06:00:13.607Z,12.20
2018-12-03T06:02:42.231Z,12.20
2018-12-03T06:05:11.533Z,12.20
2018-12-03T06:07:40.145Z,12.20
2018-12-03T06:10:10.310Z,12.30
2018-12-03T06:12:38.953Z,12.30
2018-12-03T06:15:09.065Z,12.30
2018-12-03T06:17:37.971Z,12.30
2018-12-03T06:20:12.330Z,12.30
2018-12-03T06:22:40.977Z,12.30
2018-12-03T06:25:12.805Z,12.30
2018-12-03T06:27:41.437Z,12.40
2018-12-03T06:30:12.442Z,12.30
2018-12-03T06:32:41.333Z,12.30
2018-12-03T06:35:11.106Z,12.30
2018-12-03T06:37:39.949Z,12.30
2018-12-03T06:40:12.437Z,12.30
2018-12-03T06:42:41.422Z,12.30
2018-12-03T06:45:11.657Z,12.30
2018-12-03T06:47:42.777Z,12.30
2018-12-03T06:50:11.661Z,12.30
2018-12-03T06:52:40.358Z,12.20
2018-12-03T06:55:10.388Z,12.20
2018-12-03T06:57:39.026Z,12.20
2018-12-03T07:00:16.762Z,12.20
2018-12-03T07:02:46.192Z,12.20
2018-12-03T07:05:15.769Z,12.20
2018-12-03T07:07:45.512Z,12.10
2018-12-03T07:10:16.410Z,12.10
2018-12-03T07:12:47.565Z,12.10
2018-12-03T07:15:17.722Z,12.20
2018-12-03T07:17:46.457Z,12.10
2018-12-03T07:20:16.005Z,12.20
2018-12-03T07:22:44.634Z,12.20
2018-12-03T07:25:13.291Z,12.20
2018-12-03T07:27:41.941Z,12.20
2018-12-03T07:30:16.513Z,12.20
2018-12-03T07:32:47.820Z,12.20
2018-12-03T07:35:17.109Z,12.20
2018-12-03T07:37:46.413Z,12.30
2018-12-03T07:40:15.062Z,12.30
2018-12-03T07:42:43.804Z,12.30
2018-12-03T07:45:19.437Z,12.20
2018-12-03T07:47:48.166Z,12.20
2018-12-03T07:50:17.702Z,12.20
2018-12-03T07:52:46.710Z,12.20
2018-12-03T07:55:17.664Z,12.20
2018-12-03T07:57:48.768Z,12.20
2018-12-03T08:00:21.042Z,12.20
2018-12-03T08:02:49.731Z,12.20
2018-12-03T08:05:18.397Z,12.20
2018-12-03T08:07:47.018Z,12.20
2018-12-03T08:10:17.396Z,12.20
2018-12-03T08:12:47.759Z,12.20
2018-12-03T08:15:18.893Z,12.20
2018-12-03T08:17:57.081Z,12.20
2018-12-03T08:20:31.761Z,12.30
2018-12-03T08:23:03.561Z,12.30
2018-12-03T08:25:32.206Z,12.30
2018-12-03T08:28:01.093Z,12.30
2018-12-03T08:30:29.753Z,12.40
2018-12-03T08:32:58.386Z,12.60
2018-12-03T08:35:27.038Z,12.60
2018-12-03T08:37:55.670Z,12.70
2018-12-03T08:40:24.429Z,12.70
2018-12-03T08:42:54.834Z,12.60
2018-12-03T08:45:24.541Z,12.80
2018-12-03T08:47:53.579Z,12.90
2018-12-03T08:50:23.541Z,13.00
2018-12-03T08:52:52.334Z,13.10
2018-12-03T08:55:20.968Z,13.00
2018-12-03T08:57:49.942Z,12.90
2018-12-03T09:00:21.436Z,12.80
2018-12-03T09:02:58.068Z,12.80
2018-12-03T09:05:28.410Z,12.80
2018-12-03T09:07:57.003Z,12.80
2018-12-03T09:10:25.682Z,12.80
2018-12-03T09:12:54.374Z,12.70
2018-12-03T09:15:23.057Z,12.70
2018-12-03T09:17:51.682Z,12.80
2018-12-03T09:20:20.534Z,12.80
2018-12-03T09:22:49.177Z,12.80
2018-12-03T09:25:20.103Z,12.90
2018-12-03T09:27:48.908Z,13.00
2018-12-03T09:30:17.949Z,13.10
2018-12-03T09:32:46.734Z,13.00
2018-12-03T09:35:15.424Z,13.00
2018-12-03T09:37:44.118Z,13.10
2018-12-03T09:40:16.274Z,13.20
2018-12-03T09:42:44.930Z,13.40
2018-12-03T09:45:14.417Z,13.50
2018-12-03T09:47:43.068Z,13.60
2018-12-03T09:50:20.531Z,13.50
2018-12-03T09:52:49.324Z,13.30
2018-12-03T09:55:23.113Z,13.10
2018-12-03T09:57:58.182Z,13.10
2018-12-03T10:00:27.102Z,13.10
2018-12-03T10:02:56.718Z,13.30
2018-12-03T10:05:27.702Z,13.30
2018-12-03T10:07:56.466Z,13.30
2018-12-03T10:10:25.201Z,13.20
2018-12-03T10:12:54.121Z,13.10
2018-12-03T10:15:27.783Z,13.10
2018-12-03T10:17:57.501Z,13.00
2018-12-03T10:20:26.283Z,12.90
2018-12-03T10:22:54.930Z,12.80
2018-12-03T10:25:23.620Z,12.90
2018-12-03T10:27:58.623Z,12.80
2018-12-03T10:30:27.290Z,12.80
2018-12-03T10:32:55.913Z,12.80
2018-12-03T10:35:31.103Z,12.80
2018-12-03T10:38:20.047Z,12.80
2018-12-03T10:40:55.309Z,12.90
2018-12-03T10:43:24.039Z,12.90
2018-12-03T10:45:52.783Z,12.90
2018-12-03T10:48:21.486Z,12.80
2018-12-03T10:50:50.471Z,12.80
2018-12-03T10:53:27.582Z,12.70
2018-12-03T10:55:56.417Z,12.80
2018-12-03T10:58:25.108Z,13.10
2018-12-03T11:01:04.010Z,13.10
2018-12-03T11:03:38.122Z,13.00
2018-12-03T11:06:12.049Z,12.90
2018-12-03T11:08:40.707Z,12.80
2018-12-03T11:11:09.397Z,12.80
2018-12-03T11:13:37.985Z,12.80
2018-12-03T11:16:08.964Z,12.80
2018-12-03T11:18:40.257Z,13.10
2018-12-03T11:21:08.873Z,13.30
2018-12-03T11:23:37.481Z,13.50
2018-12-03T11:26:07.012Z,13.70
2018-12-03T11:28:38.927Z,13.80
2018-12-03T11:31:09.814Z,14.00
2018-12-03T11:33:38.658Z,14.10
2018-12-03T11:36:07.332Z,13.90
2018-12-03T11:38:41.915Z,13.90
2018-12-03T11:41:10.538Z,14.00
2018-12-03T11:43:39.186Z,14.00
2018-12-03T11:46:07.801Z,13.80
2018-12-03T11:48:36.618Z,13.70
2018-12-03T11:51:05.613Z,13.60
2018-12-03T11:53:34.647Z,13.50
2018-12-03T11:56:03.289Z,13.40
2018-12-03T11:58:31.950Z,13.40
2018-12-03T12:01:00.613Z,13.40
2018-12-03T12:03:29.287Z,13.40
2018-12-03T12:05:57.938Z,13.30
2018-12-03T12:08:27.038Z,13.30
2018-12-03T12:10:55.713Z,13.20
2018-12-03T12:13:24.418Z,13.20
2018-12-03T12:15:53.079Z,13.20
2018-12-03T12:18:21.726Z,13.10
2018-12-03T12:20:50.354Z,13.10
2018-12-03T12:23:19.414Z,13.10
2018-12-03T12:25:48.032Z,13.20
2018-12-03T12:28:16.674Z,13.20
2018-12-03T12:30:45.422Z,13.30
2018-12-03T12:33:14.190Z,13.40
2018-12-03T12:35:42.895Z,13.50
2018-12-03T12:38:11.593Z,13.50
2018-12-03T12:40:40.214Z,13.60
2018-12-03T12:43:08.980Z,13.60
2018-12-03T12:46:11.814Z,13.60
2018-12-03T12:48:40.460Z,13.60
2018-12-03T12:51:09.075Z,13.70
2018-12-03T12:53:37.749Z,13.70
2018-12-03T12:56:06.394Z,13.70
2018-12-03T12:58:35.042Z,13.60
2018-12-03T13:01:03.681Z,13.60
2018-12-03T13:03:32.304Z,13.60
2018-12-03T13:06:00.922Z,13.60
2018-12-03T13:08:29.968Z,13.50
2018-12-03T13:10:58.609Z,13.60
2018-12-03T13:13:27.238Z,13.50
2018-12-03T13:15:55.858Z,13.50
2018-12-03T13:18:24.501Z,13.40
2018-12-03T13:20:53.103Z,13.40
2018-12-03T13:23:21.857Z,13.30
2018-12-03T13:25:50.705Z,13.30
2018-12-03T13:28:20.006Z,13.30
2018-12-03T13:30:48.666Z,13.20
2018-12-03T13:33:17.342Z,13.20
2018-12-03T13:35:45.963Z,13.10
2018-12-03T13:38:14.596Z,13.10
2018-12-03T13:40:43.222Z,13.10
2018-12-03T13:43:12.207Z,13.10
2018-12-03T13:45:40.825Z,13.10
2018-12-03T13:48:09.643Z,13.00
2018-12-03T13:50:38.539Z,13.10
2018-12-03T13:53:08.089Z,13.10
2018-12-03T13:55:36.786Z,13.00
2018-12-03T13:58:05.833Z,13.10
2018-12-03T14:00:34.765Z,13.10
2018-12-03T14:03:08.359Z,13.10
2018-12-03T14:05:43.122Z,13.10
2018-12-03T14:08:19.478Z,13.20
2018-12-03T14:10:57.805Z,13.10
2018-12-03T14:13:37.653Z,13.10
2018-12-03T14:16:16.146Z,13.10
2018-12-03T14:18:57.413Z,13.00
2018-12-03T14:21:30.593Z,12.90
2018-12-03T14:24:00.053Z,12.90
2018-12-03T14:26:28.747Z,12.80
2018-12-03T14:28:57.419Z,12.80
2018-12-03T14:31:26.083Z,12.70
2018-12-03T14:33:55.714Z,12.70
2018-12-03T14:36:24.353Z,12.70
2018-12-03T14:38:52.977Z,12.70
2018-12-03T14:41:21.630Z,12.70
2018-12-03T14:43:50.302Z,12.60
2018-12-03T14:46:19.064Z,12.60
2018-12-03T14:48:47.986Z,12.50
2018-12-03T14:51:16.646Z,12.40
2018-12-03T14:53:45.290Z,12.40
2018-12-03T14:56:13.910Z,12.30
2018-12-03T14:58:42.585Z,12.30
2018-12-03T15:01:11.218Z,12.30
2018-12-03T15:03:40.098Z,12.30
2018-12-03T15:06:08.765Z,12.20
2018-12-03T15:14:00.190Z,12.10
2018-12-03T15:16:28.929Z,12.00
2018-12-03T15:18:57.615Z,12.00
2018-12-03T15:21:26.541Z,11.90
2018-12-03T15:23:56.227Z,11.90
2018-12-03T15:26:24.993Z,11.90
2018-12-03T15:28:53.774Z,11.80
2018-12-03T15:31:22.575Z,11.90
2018-12-03T15:33:51.346Z,11.90
2018-12-03T15:36:20.057Z,11.80
2018-12-03T15:38:50.058Z,11.80
2018-12-03T15:41:19.197Z,11.80
2018-12-03T15:43:47.906Z,11.70
2018-12-03T15:46:16.708Z,11.70
2018-12-03T15:48:45.362Z,11.70
2018-12-03T15:51:14.033Z,11.70
2018-12-03T15:53:42.687Z,11.70
2018-12-03T15:56:11.466Z,11.70
2018-12-03T15:58:40.298Z,11.70
2018-12-03T16:01:14.304Z,11.60
2018-12-03T16:03:39.803Z,11.60
2018-12-03T16:06:08.510Z,11.60
2018-12-03T16:08:37.401Z,11.60
2018-12-03T16:11:06.647Z,11.60
2018-12-03T16:13:35.575Z,11.60
2018-12-03T16:16:04.374Z,11.60
2018-12-03T16:18:33.317Z,11.60
2018-12-03T16:21:02.424Z,11.60
2018-12-03T16:23:31.851Z,11.60
2018-12-03T16:26:00.647Z,11.50
2018-12-03T16:28:30.726Z,11.50
2018-12-03T16:30:59.558Z,11.50
2018-12-03T16:33:28.519Z,11.60
2018-12-03T16:35:57.480Z,11.70
2018-12-03T16:38:26.166Z,11.70
2018-12-03T16:40:54.894Z,11.60
2018-12-03T16:43:23.562Z,11.50
2018-12-03T16:45:52.652Z,11.50
2018-12-03T16:48:21.578Z,11.50
2018-12-03T16:50:50.222Z,11.50
2018-12-03T16:53:19.024Z,11.40
2018-12-03T16:55:47.944Z,11.40
2018-12-03T16:58:16.708Z,11.40
2018-12-03T17:00:45.470Z,11.40
2018-12-03T17:03:14.110Z,11.40
2018-12-03T17:05:42.871Z,11.50
2018-12-03T17:08:11.696Z,11.60
2018-12-03T17:10:40.423Z,11.60
2018-12-03T17:13:09.244Z,11.60
2018-12-03T17:15:39.501Z,11.70
2018-12-03T17:18:10.241Z,11.70
2018-12-03T17:21:13.262Z,11.80
2018-12-03T17:23:56.441Z,11.70
2018-12-03T17:26:25.362Z,11.80
2018-12-03T17:28:54.361Z,11.70
2018-12-03T17:31:23.479Z,11.70
2018-12-03T17:33:52.754Z,11.70
2018-12-03T17:36:22.337Z,11.70
2018-12-03T17:38:51.155Z,11.70
2018-12-03T17:41:20.960Z,11.60
2018-12-03T17:43:50.706Z,11.70
2018-12-03T17:46:19.492Z,11.60
2018-12-03T17:48:48.295Z,11.60
2018-12-03T17:51:17.587Z,11.60
2018-12-03T17:53:46.350Z,11.50
2018-12-03T17:56:14.999Z,11.50
2018-12-03T17:58:44.487Z,11.50
2018-12-03T18:01:13.157Z,11.50
2018-12-03T18:03:41.950Z,11.50
2018-12-03T18:06:16.953Z,11.50
2018-12-03T18:08:41.688Z,11.50
2018-12-03T18:11:10.425Z,11.50
2018-12-03T18:13:39.241Z,11.50
2018-12-03T18:16:08.954Z,11.50
2018-12-03T18:18:37.743Z,11.40
2018-12-03T18:21:06.501Z,11.40
2018-12-03T18:23:35.266Z,11.50
2018-12-03T18:26:04.006Z,11.50
2018-12-03T18:28:32.733Z,11.40
2018-12-03T18:31:01.563Z,11.40
2018-12-03T18:33:30.518Z,11.40
2018-12-03T18:35:59.567Z,11.30
2018-12-03T18:38:28.595Z,11.30
2018-12-03T18:41:03.196Z,11.30
2018-12-03T18:43:28.454Z,11.30
2018-12-03T18:45:57.455Z,11.20
2018-12-03T18:48:26.289Z,11.30
2018-12-03T18:50:55.637Z,11.20
2018-12-03T18:53:26.435Z,11.20
2018-12-03T18:55:55.256Z,11.20
2018-12-03T18:58:32.830Z,11.20
2018-12-03T19:01:03.280Z,11.20
2018-12-03T19:03:32.152Z,11.20
2018-12-03T19:06:01.633Z,11.20
2018-12-03T19:08:30.667Z,11.10
2018-12-03T19:10:59.518Z,11.10
2018-12-03T19:13:28.242Z,11.20
2018-12-03T19:15:57.306Z,11.20
2018-12-03T19:18:26.289Z,11.30
2018-12-03T19:20:55.195Z,11.30
2018-12-03T19:23:23.964Z,11.30
2018-12-03T19:25:54.694Z,11.40
2018-12-03T19:28:23.793Z,11.40
2018-12-03T19:30:52.900Z,11.40
2018-12-03T19:33:23.633Z,11.50
2018-12-03T19:35:54.562Z,11.50
2018-12-03T19:38:27.985Z,11.50
2018-12-03T19:40:57.910Z,11.50
2018-12-03T19:43:28.266Z,11.50
2018-12-03T19:45:57.110Z,11.50
2018-12-03T19:48:25.909Z,11.50
2018-12-03T19:50:56.651Z,11.50
2018-12-03T19:53:26.257Z,11.50
2018-12-03T19:55:55.315Z,11.40
2018-12-03T19:58:29.488Z,11.40
2018-12-03T20:00:58.554Z,11.40
2018-12-03T20:03:28.485Z,11.40
2018-12-03T20:05:57.429Z,11.40
2018-12-03T20:08:27.240Z,11.40
2018-12-03T20:10:56.207Z,11.40
2018-12-03T20:13:25.362Z,11.40
2018-12-03T20:15:54.166Z,11.40
2018-12-03T20:18:27.223Z,11.30
2018-12-03T20:20:59.928Z,11.30
2018-12-03T20:23:39.386Z,11.20
2018-12-03T20:26:24.328Z,11.20
2018-12-03T20:28:56.674Z,11.10
2018-12-03T20:31:42.409Z,11.10
2018-12-03T20:34:21.686Z,11.10
2018-12-03T20:37:01.184Z,11.10
2018-12-03T20:39:44.078Z,11.10
2018-12-03T20:42:12.790Z,11.10
2018-12-03T20:44:45.219Z,11.10
2018-12-03T20:47:21.842Z,11.10
2018-12-03T20:50:06.252Z,10.90
2018-12-03T20:52:34.974Z,11.00
2018-12-03T20:55:10.572Z,11.00
2018-12-03T20:57:40.285Z,11.00
2018-12-03T21:00:09.962Z,10.90
2018-12-03T21:02:40.725Z,10.90
2018-12-03T21:05:10.707Z,11.00
2018-12-03T21:07:40.311Z,11.00
2018-12-03T21:10:08.986Z,11.00
2018-12-03T21:12:37.774Z,11.00
2018-12-03T21:15:06.751Z,11.00
2018-12-03T21:17:35.563Z,11.00
2018-12-03T21:20:16.657Z,11.10
2018-12-03T21:22:45.329Z,11.10
2018-12-03T21:25:14.123Z,11.10
2018-12-03T21:27:42.926Z,11.20
2018-12-03T21:30:11.785Z,11.10
2018-12-03T21:32:40.597Z,11.10
2018-12-03T21:35:10.414Z,11.10
2018-12-03T21:37:39.243Z,11.10
2018-12-03T21:40:08.659Z,11.10
2018-12-03T21:42:37.415Z,11.10
2018-12-03T21:45:06.649Z,11.10
2018-12-03T21:47:35.381Z,11.20
2018-12-03T21:50:07.079Z,11.10
2018-12-03T21:52:34.890Z,11.20
2018-12-03T21:55:03.851Z,11.10
2018-12-03T21:57:32.510Z,11.10
2018-12-03T22:00:01.937Z,11.20
2018-12-03T22:02:31.171Z,11.20
2018-12-03T22:05:00.281Z,11.20
2018-12-03T22:07:28.993Z,11.20
2018-12-03T22:09:57.650Z,11.20
2018-12-03T22:12:26.405Z,11.20
2018-12-03T22:14:55.123Z,11.20
2018-12-03T22:17:24.040Z,11.10
2018-12-03T22:19:52.990Z,11.20
2018-12-03T22:22:21.981Z,11.20
2018-12-03T22:24:50.986Z,11.10
2018-12-03T22:27:19.700Z,11.20
2018-12-03T22:29:48.469Z,11.20
2018-12-03T22:32:18.010Z,11.20
2018-12-03T22:34:46.778Z,11.20
2018-12-03T22:37:15.391Z,11.10
2018-12-03T22:39:46.520Z,11.10
2018-12-03T22:42:14.752Z,11.20
2018-12-03T22:44:43.960Z,11.20
2018-12-03T22:47:12.788Z,11.20
2018-12-03T22:49:41.702Z,11.30
2018-12-03T22:52:10.689Z,11.20
2018-12-03T22:54:39.398Z,11.20
2018-12-03T22:57:08.192Z,11.20
2018-12-03T22:59:36.885Z,11.20
2018-12-03T23:02:05.712Z,11.20
2018-12-03T23:04:39.182Z,11.20
2018-12-03T23:07:08.260Z,11.20
2018-12-03T23:09:37.033Z,11.20
2018-12-03T23:12:05.962Z,11.20
2018-12-03T23:14:34.716Z,11.20
2018-12-03T23:17:03.434Z,11.10
2018-12-03T23:19:32.177Z,11.10
2018-12-03T23:22:01.234Z,11.00
2018-12-03T23:24:29.957Z,11.00
2018-12-03T23:26:58.776Z,11.00
2018-12-03T23:29:27.517Z,11.00
2018-12-03T23:31:56.304Z,11.00
2018-12-03T23:34:24.993Z,11.00
2018-12-03T23:36:53.719Z,11.10
2018-12-03T23:39:22.524Z,11.10
2018-12-03T23:41:51.296Z,11.10
2018-12-03T23:44:19.997Z,11.20
2018-12-03T23:46:48.719Z,11.10
2018-12-03T23:49:17.458Z,11.10
2018-12-03T23:51:46.283Z,11.10
2018-12-03T23:54:15.041Z,11.10
2018-12-03T23:56:44.434Z,11.10
2018-12-03T23:59:13.214Z,11.10
